sensor_id;sensor_type;location;lat;lon;timestamp;P1;durP1;ratioP1;P2;durP2;ratioP2
14342;SDS011;7255;53.596;9.960;2023-11-18T00:00:18;5.97;;;4.83;;
14342;SDS011;7255;53.596;9.960;2023-11-18T00:02:44;6.83;;;4.77;;
14342;SDS011;7255;53.596;9.960;2023-11-18T00:05:12;7.57;;;5.33;;
14342;SDS011;7255;53.596;9.960;2023-11-18T00:07:39;6.67;;;5.27;;
14342;SDS011;7255;53.596;9.960;2023-11-18T00:10:06;6.57;;;5.00;;
14342;SDS011;7255;53.596;9.960;2023-11-18T00:12:33;5.73;;;4.13;;
14342;SDS011;7255;53.596;9.960;2023-11-18T00:15:00;6.00;;;4.03;;
14342;SDS011;7255;53.596;9.960;2023-11-18T00:17:28;8.50;;;5.07;;
14342;SDS011;7255;53.596;9.960;2023-11-18T00:19:54;5.00;;;4.50;;
14342;SDS011;7255;53.596;9.960;2023-11-18T00:22:22;5.53;;;4.30;;
14342;SDS011;7255;53.596;9.960;2023-11-18T00:24:48;5.70;;;5.10;;
14342;SDS011;7255;53.596;9.960;2023-11-18T00:27:14;7.17;;;5.60;;
14342;SDS011;7255;53.596;9.960;2023-11-18T00:29:41;5.93;;;4.73;;
14342;SDS011;7255;53.596;9.960;2023-11-18T00:32:08;5.13;;;4.43;;
14342;SDS011;7255;53.596;9.960;2023-11-18T00:34:35;7.40;;;4.80;;
14342;SDS011;7255;53.596;9.960;2023-11-18T00:37:00;7.17;;;5.50;;
14342;SDS011;7255;53.596;9.960;2023-11-18T00:39:28;6.40;;;5.00;;
14342;SDS011;7255;53.596;9.960;2023-11-18T00:41:54;5.47;;;4.97;;
14342;SDS011;7255;53.596;9.960;2023-11-18T00:44:21;6.03;;;4.47;;
14342;SDS011;7255;53.596;9.960;2023-11-18T00:46:48;5.60;;;4.80;;
14342;SDS011;7255;53.596;9.960;2023-11-18T00:49:14;7.63;;;5.43;;
14342;SDS011;7255;53.596;9.960;2023-11-18T00:51:41;6.93;;;4.87;;
14342;SDS011;7255;53.596;9.960;2023-11-18T00:54:07;6.10;;;4.73;;
14342;SDS011;7255;53.596;9.960;2023-11-18T00:56:36;7.10;;;5.60;;
14342;SDS011;7255;53.596;9.960;2023-11-18T00:59:02;7.27;;;5.40;;
14342;SDS011;7255;53.596;9.960;2023-11-18T01:01:29;5.93;;;4.67;;
14342;SDS011;7255;53.596;9.960;2023-11-18T01:03:55;6.33;;;4.57;;
14342;SDS011;7255;53.596;9.960;2023-11-18T01:06:24;6.20;;;4.80;;
14342;SDS011;7255;53.596;9.960;2023-11-18T01:08:50;7.47;;;5.10;;
14342;SDS011;7255;53.596;9.960;2023-11-18T01:11:17;7.90;;;5.33;;
14342;SDS011;7255;53.596;9.960;2023-11-18T01:13:46;7.53;;;5.57;;
14342;SDS011;7255;53.596;9.960;2023-11-18T01:16:12;7.93;;;5.00;;
14342;SDS011;7255;53.596;9.960;2023-11-18T01:18:39;6.40;;;4.83;;
14342;SDS011;7255;53.596;9.960;2023-11-18T01:21:06;6.20;;;5.23;;
14342;SDS011;7255;53.596;9.960;2023-11-18T01:23:34;5.90;;;5.30;;
14342;SDS011;7255;53.596;9.960;2023-11-18T01:26:00;7.97;;;5.27;;
14342;SDS011;7255;53.596;9.960;2023-11-18T01:28:29;7.83;;;6.20;;
14342;SDS011;7255;53.596;9.960;2023-11-18T01:30:59;5.73;;;4.73;;
14342;SDS011;7255;53.596;9.960;2023-11-18T01:33:25;6.60;;;5.80;;
14342;SDS011;7255;53.596;9.960;2023-11-18T01:35:52;7.50;;;6.03;;
14342;SDS011;7255;53.596;9.960;2023-11-18T01:38:19;7.93;;;5.13;;
14342;SDS011;7255;53.596;9.960;2023-11-18T01:40:46;8.37;;;5.40;;
14342;SDS011;7255;53.596;9.960;2023-11-18T01:43:12;5.83;;;5.23;;
14342;SDS011;7255;53.596;9.960;2023-11-18T01:45:39;8.03;;;5.83;;
14342;SDS011;7255;53.596;9.960;2023-11-18T01:48:08;9.13;;;5.53;;
14342;SDS011;7255;53.596;9.960;2023-11-18T01:50:35;7.40;;;5.40;;
14342;SDS011;7255;53.596;9.960;2023-11-18T01:53:03;7.50;;;5.53;;
14342;SDS011;7255;53.596;9.960;2023-11-18T01:55:29;8.70;;;5.03;;
14342;SDS011;7255;53.596;9.960;2023-11-18T01:57:55;6.40;;;5.50;;
14342;SDS011;7255;53.596;9.960;2023-11-18T02:00:23;10.40;;;5.80;;
14342;SDS011;7255;53.596;9.960;2023-11-18T02:02:50;5.90;;;5.30;;
14342;SDS011;7255;53.596;9.960;2023-11-18T02:05:18;7.03;;;5.00;;
14342;SDS011;7255;53.596;9.960;2023-11-18T02:07:47;9.67;;;5.53;;
14342;SDS011;7255;53.596;9.960;2023-11-18T02:10:13;8.93;;;5.57;;
14342;SDS011;7255;53.596;9.960;2023-11-18T02:12:43;8.87;;;5.53;;
14342;SDS011;7255;53.596;9.960;2023-11-18T02:15:13;7.37;;;5.70;;
14342;SDS011;7255;53.596;9.960;2023-11-18T02:17:42;7.77;;;5.47;;
14342;SDS011;7255;53.596;9.960;2023-11-18T02:20:11;7.77;;;5.30;;
14342;SDS011;7255;53.596;9.960;2023-11-18T02:22:42;8.40;;;5.60;;
14342;SDS011;7255;53.596;9.960;2023-11-18T02:25:09;6.80;;;4.90;;
14342;SDS011;7255;53.596;9.960;2023-11-18T02:30:56;7.70;;;5.40;;
14342;SDS011;7255;53.596;9.960;2023-11-18T02:33:31;7.77;;;5.93;;
14342;SDS011;7255;53.596;9.960;2023-11-18T02:36:06;8.30;;;6.23;;
14342;SDS011;7255;53.596;9.960;2023-11-18T02:38:38;6.33;;;5.23;;
14342;SDS011;7255;53.596;9.960;2023-11-18T02:41:10;8.17;;;5.33;;
14342;SDS011;7255;53.596;9.960;2023-11-18T02:43:39;5.33;;;4.77;;
14342;SDS011;7255;53.596;9.960;2023-11-18T02:46:07;6.83;;;5.23;;
14342;SDS011;7255;53.596;9.960;2023-11-18T02:48:37;7.03;;;6.10;;
14342;SDS011;7255;53.596;9.960;2023-11-18T02:51:04;7.40;;;5.40;;
14342;SDS011;7255;53.596;9.960;2023-11-18T02:53:32;6.17;;;5.47;;
14342;SDS011;7255;53.596;9.960;2023-11-18T02:55:59;8.27;;;5.70;;
14342;SDS011;7255;53.596;9.960;2023-11-18T02:58:27;7.57;;;5.43;;
14342;SDS011;7255;53.596;9.960;2023-11-18T03:00:54;10.10;;;6.07;;
14342;SDS011;7255;53.596;9.960;2023-11-18T03:03:21;8.57;;;5.20;;
14342;SDS011;7255;53.596;9.960;2023-11-18T03:05:48;6.30;;;4.90;;
14342;SDS011;7255;53.596;9.960;2023-11-18T03:08:15;8.50;;;5.07;;
14342;SDS011;7255;53.596;9.960;2023-11-18T03:10:41;6.10;;;5.33;;
14342;SDS011;7255;53.596;9.960;2023-11-18T03:13:09;6.03;;;4.97;;
14342;SDS011;7255;53.596;9.960;2023-11-18T03:15:37;6.10;;;5.47;;
14342;SDS011;7255;53.596;9.960;2023-11-18T03:18:03;7.53;;;5.10;;
14342;SDS011;7255;53.596;9.960;2023-11-18T03:20:33;6.87;;;5.23;;
14342;SDS011;7255;53.596;9.960;2023-11-18T03:22:59;9.43;;;6.07;;
14342;SDS011;7255;53.596;9.960;2023-11-18T03:25:26;7.70;;;5.93;;
14342;SDS011;7255;53.596;9.960;2023-11-18T03:27:53;6.27;;;5.30;;
14342;SDS011;7255;53.596;9.960;2023-11-18T03:30:19;7.17;;;5.43;;
14342;SDS011;7255;53.596;9.960;2023-11-18T03:32:46;6.77;;;6.07;;
14342;SDS011;7255;53.596;9.960;2023-11-18T03:35:12;7.43;;;5.00;;
14342;SDS011;7255;53.596;9.960;2023-11-18T03:37:41;6.90;;;5.13;;
14342;SDS011;7255;53.596;9.960;2023-11-18T03:40:08;7.87;;;5.67;;
14342;SDS011;7255;53.596;9.960;2023-11-18T03:42:35;6.37;;;5.13;;
14342;SDS011;7255;53.596;9.960;2023-11-18T03:45:02;7.17;;;5.67;;
14342;SDS011;7255;53.596;9.960;2023-11-18T03:47:29;7.10;;;5.20;;
14342;SDS011;7255;53.596;9.960;2023-11-18T03:49:56;8.33;;;5.93;;
14342;SDS011;7255;53.596;9.960;2023-11-18T03:52:22;6.40;;;5.77;;
14342;SDS011;7255;53.596;9.960;2023-11-18T03:54:50;8.97;;;6.33;;
14342;SDS011;7255;53.596;9.960;2023-11-18T03:57:16;8.17;;;5.07;;
14342;SDS011;7255;53.596;9.960;2023-11-18T03:59:43;6.77;;;5.27;;
14342;SDS011;7255;53.596;9.960;2023-11-18T04:02:09;6.00;;;5.07;;
14342;SDS011;7255;53.596;9.960;2023-11-18T04:04:36;7.93;;;5.50;;
14342;SDS011;7255;53.596;9.960;2023-11-18T04:07:03;6.47;;;5.63;;
14342;SDS011;7255;53.596;9.960;2023-11-18T04:09:29;8.10;;;5.90;;
14342;SDS011;7255;53.596;9.960;2023-11-18T04:11:57;7.37;;;5.60;;
14342;SDS011;7255;53.596;9.960;2023-11-18T04:14:23;9.30;;;6.27;;
14342;SDS011;7255;53.596;9.960;2023-11-18T04:16:50;7.00;;;5.20;;
14342;SDS011;7255;53.596;9.960;2023-11-18T04:19:18;7.20;;;5.93;;
14342;SDS011;7255;53.596;9.960;2023-11-18T04:21:44;5.60;;;5.07;;
14342;SDS011;7255;53.596;9.960;2023-11-18T04:24:14;7.47;;;5.67;;
14342;SDS011;7255;53.596;9.960;2023-11-18T04:26:41;10.23;;;6.40;;
14342;SDS011;7255;53.596;9.960;2023-11-18T04:29:08;8.40;;;5.97;;
14342;SDS011;7255;53.596;9.960;2023-11-18T04:31:34;6.73;;;5.00;;
14342;SDS011;7255;53.596;9.960;2023-11-18T04:34:02;7.80;;;5.87;;
14342;SDS011;7255;53.596;9.960;2023-11-18T04:36:29;8.87;;;6.03;;
14342;SDS011;7255;53.596;9.960;2023-11-18T04:38:56;7.40;;;6.30;;
14342;SDS011;7255;53.596;9.960;2023-11-18T04:41:22;9.20;;;5.97;;
14342;SDS011;7255;53.596;9.960;2023-11-18T04:43:49;6.23;;;5.00;;
14342;SDS011;7255;53.596;9.960;2023-11-18T04:46:16;9.57;;;6.23;;
14342;SDS011;7255;53.596;9.960;2023-11-18T04:48:44;7.47;;;5.90;;
14342;SDS011;7255;53.596;9.960;2023-11-18T04:51:10;12.40;;;6.30;;
14342;SDS011;7255;53.596;9.960;2023-11-18T04:53:37;8.00;;;5.43;;
14342;SDS011;7255;53.596;9.960;2023-11-18T04:56:04;7.37;;;6.03;;
14342;SDS011;7255;53.596;9.960;2023-11-18T04:58:34;9.10;;;6.43;;
14342;SDS011;7255;53.596;9.960;2023-11-18T05:01:00;7.53;;;6.00;;
14342;SDS011;7255;53.596;9.960;2023-11-18T05:03:28;8.97;;;6.20;;
14342;SDS011;7255;53.596;9.960;2023-11-18T05:05:55;10.63;;;6.43;;
14342;SDS011;7255;53.596;9.960;2023-11-18T05:08:21;7.27;;;5.43;;
14342;SDS011;7255;53.596;9.960;2023-11-18T05:10:48;8.57;;;5.93;;
14342;SDS011;7255;53.596;9.960;2023-11-18T05:13:15;10.13;;;6.50;;
14342;SDS011;7255;53.596;9.960;2023-11-18T05:15:42;7.47;;;5.97;;
14342;SDS011;7255;53.596;9.960;2023-11-18T05:18:10;10.90;;;7.07;;
14342;SDS011;7255;53.596;9.960;2023-11-18T05:20:40;8.90;;;5.93;;
14342;SDS011;7255;53.596;9.960;2023-11-18T05:23:06;6.57;;;5.47;;
14342;SDS011;7255;53.596;9.960;2023-11-18T05:25:35;12.90;;;6.27;;
14342;SDS011;7255;53.596;9.960;2023-11-18T05:28:01;9.87;;;5.93;;
14342;SDS011;7255;53.596;9.960;2023-11-18T05:30:28;6.97;;;5.43;;
14342;SDS011;7255;53.596;9.960;2023-11-18T05:32:55;10.97;;;5.73;;
14342;SDS011;7255;53.596;9.960;2023-11-18T05:35:23;7.53;;;5.77;;
14342;SDS011;7255;53.596;9.960;2023-11-18T05:37:54;9.47;;;6.27;;
14342;SDS011;7255;53.596;9.960;2023-11-18T05:40:20;10.90;;;6.07;;
14342;SDS011;7255;53.596;9.960;2023-11-18T05:42:47;9.20;;;5.97;;
14342;SDS011;7255;53.596;9.960;2023-11-18T05:45:17;7.97;;;5.93;;
14342;SDS011;7255;53.596;9.960;2023-11-18T05:47:52;14.03;;;6.43;;
14342;SDS011;7255;53.596;9.960;2023-11-18T05:50:19;9.17;;;5.40;;
14342;SDS011;7255;53.596;9.960;2023-11-18T05:52:46;7.13;;;5.07;;
14342;SDS011;7255;53.596;9.960;2023-11-18T05:55:14;10.10;;;6.00;;
14342;SDS011;7255;53.596;9.960;2023-11-18T05:57:41;8.90;;;6.07;;
14342;SDS011;7255;53.596;9.960;2023-11-18T06:00:10;9.90;;;6.33;;
14342;SDS011;7255;53.596;9.960;2023-11-18T06:02:40;8.83;;;6.17;;
14342;SDS011;7255;53.596;9.960;2023-11-18T06:05:07;11.70;;;6.40;;
14342;SDS011;7255;53.596;9.960;2023-11-18T06:07:33;8.00;;;5.93;;
14342;SDS011;7255;53.596;9.960;2023-11-18T06:10:00;7.40;;;5.53;;
14342;SDS011;7255;53.596;9.960;2023-11-18T06:12:28;9.00;;;6.23;;
14342;SDS011;7255;53.596;9.960;2023-11-18T06:14:55;9.87;;;6.13;;
14342;SDS011;7255;53.596;9.960;2023-11-18T06:17:22;9.57;;;7.00;;
14342;SDS011;7255;53.596;9.960;2023-11-18T06:19:48;9.67;;;6.23;;
14342;SDS011;7255;53.596;9.960;2023-11-18T06:22:15;9.50;;;6.13;;
14342;SDS011;7255;53.596;9.960;2023-11-18T06:24:41;8.50;;;5.90;;
14342;SDS011;7255;53.596;9.960;2023-11-18T06:27:08;7.97;;;5.57;;
14342;SDS011;7255;53.596;9.960;2023-11-18T06:29:36;7.27;;;5.53;;
14342;SDS011;7255;53.596;9.960;2023-11-18T06:32:03;9.67;;;6.73;;
14342;SDS011;7255;53.596;9.960;2023-11-18T06:34:30;8.87;;;5.87;;
14342;SDS011;7255;53.596;9.960;2023-11-18T06:36:57;8.07;;;5.53;;
14342;SDS011;7255;53.596;9.960;2023-11-18T06:39:24;8.53;;;5.90;;
14342;SDS011;7255;53.596;9.960;2023-11-18T06:41:54;10.43;;;6.33;;
14342;SDS011;7255;53.596;9.960;2023-11-18T06:44:21;8.90;;;6.23;;
14342;SDS011;7255;53.596;9.960;2023-11-18T06:46:50;8.10;;;6.17;;
14342;SDS011;7255;53.596;9.960;2023-11-18T06:49:16;7.53;;;6.33;;
14342;SDS011;7255;53.596;9.960;2023-11-18T06:51:43;9.27;;;6.73;;
14342;SDS011;7255;53.596;9.960;2023-11-18T06:54:10;9.17;;;6.00;;
14342;SDS011;7255;53.596;9.960;2023-11-18T06:56:38;8.33;;;6.07;;
14342;SDS011;7255;53.596;9.960;2023-11-18T06:59:07;9.50;;;6.17;;
14342;SDS011;7255;53.596;9.960;2023-11-18T07:01:35;7.67;;;5.47;;
14342;SDS011;7255;53.596;9.960;2023-11-18T07:04:04;7.60;;;5.90;;
14342;SDS011;7255;53.596;9.960;2023-11-18T07:06:33;8.50;;;6.50;;
14342;SDS011;7255;53.596;9.960;2023-11-18T07:09:03;9.10;;;6.30;;
14342;SDS011;7255;53.596;9.960;2023-11-18T07:11:37;10.47;;;6.93;;
14342;SDS011;7255;53.596;9.960;2023-11-18T07:14:03;9.27;;;6.50;;
14342;SDS011;7255;53.596;9.960;2023-11-18T07:16:30;9.23;;;6.63;;
14342;SDS011;7255;53.596;9.960;2023-11-18T07:18:56;10.30;;;6.47;;
14342;SDS011;7255;53.596;9.960;2023-11-18T07:21:24;11.17;;;6.73;;
14342;SDS011;7255;53.596;9.960;2023-11-18T07:23:50;10.43;;;6.73;;
14342;SDS011;7255;53.596;9.960;2023-11-18T07:26:16;12.83;;;6.73;;
14342;SDS011;7255;53.596;9.960;2023-11-18T07:28:42;10.10;;;6.03;;
14342;SDS011;7255;53.596;9.960;2023-11-18T07:31:09;11.30;;;6.93;;
14342;SDS011;7255;53.596;9.960;2023-11-18T07:33:36;14.43;;;6.90;;
14342;SDS011;7255;53.596;9.960;2023-11-18T07:36:02;10.60;;;6.30;;
14342;SDS011;7255;53.596;9.960;2023-11-18T07:38:32;11.20;;;7.53;;
14342;SDS011;7255;53.596;9.960;2023-11-18T07:40:59;10.00;;;6.73;;
14342;SDS011;7255;53.596;9.960;2023-11-18T07:43:27;12.50;;;7.50;;
14342;SDS011;7255;53.596;9.960;2023-11-18T07:45:54;13.07;;;7.20;;
14342;SDS011;7255;53.596;9.960;2023-11-18T07:48:20;11.77;;;7.33;;
14342;SDS011;7255;53.596;9.960;2023-11-18T07:50:47;15.77;;;7.93;;
14342;SDS011;7255;53.596;9.960;2023-11-18T07:53:13;10.13;;;6.90;;
14342;SDS011;7255;53.596;9.960;2023-11-18T07:55:41;11.10;;;7.33;;
14342;SDS011;7255;53.596;9.960;2023-11-18T07:58:07;12.63;;;6.50;;
14342;SDS011;7255;53.596;9.960;2023-11-18T08:00:35;12.57;;;7.70;;
14342;SDS011;7255;53.596;9.960;2023-11-18T08:03:03;11.07;;;7.43;;
14342;SDS011;7255;53.596;9.960;2023-11-18T08:05:32;10.03;;;7.43;;
14342;SDS011;7255;53.596;9.960;2023-11-18T08:07:59;13.30;;;7.03;;
14342;SDS011;7255;53.596;9.960;2023-11-18T08:10:25;10.00;;;7.83;;
14342;SDS011;7255;53.596;9.960;2023-11-18T08:12:54;13.33;;;7.37;;
14342;SDS011;7255;53.596;9.960;2023-11-18T08:15:21;11.53;;;7.53;;
14342;SDS011;7255;53.596;9.960;2023-11-18T08:17:47;13.63;;;7.07;;
14342;SDS011;7255;53.596;9.960;2023-11-18T08:20:15;13.97;;;7.47;;
14342;SDS011;7255;53.596;9.960;2023-11-18T08:22:40;15.43;;;8.40;;
14342;SDS011;7255;53.596;9.960;2023-11-18T08:25:09;13.20;;;7.77;;
14342;SDS011;7255;53.596;9.960;2023-11-18T08:27:35;12.50;;;7.53;;
14342;SDS011;7255;53.596;9.960;2023-11-18T08:30:03;18.60;;;8.63;;
14342;SDS011;7255;53.596;9.960;2023-11-18T08:32:36;14.20;;;7.97;;
14342;SDS011;7255;53.596;9.960;2023-11-18T08:35:03;14.47;;;7.87;;
14342;SDS011;7255;53.596;9.960;2023-11-18T08:37:31;10.97;;;7.07;;
14342;SDS011;7255;53.596;9.960;2023-11-18T08:39:57;8.17;;;6.63;;
14342;SDS011;7255;53.596;9.960;2023-11-18T08:42:23;8.30;;;6.47;;
14342;SDS011;7255;53.596;9.960;2023-11-18T08:44:49;8.93;;;6.67;;
14342;SDS011;7255;53.596;9.960;2023-11-18T08:47:17;9.83;;;7.30;;
14342;SDS011;7255;53.596;9.960;2023-11-18T08:49:44;8.60;;;6.40;;
14342;SDS011;7255;53.596;9.960;2023-11-18T08:52:11;9.73;;;6.20;;
14342;SDS011;7255;53.596;9.960;2023-11-18T08:54:38;15.17;;;5.33;;
14342;SDS011;7255;53.596;9.960;2023-11-18T08:57:24;7.80;;;6.43;;
14342;SDS011;7255;53.596;9.960;2023-11-18T08:59:51;9.27;;;5.50;;
14342;SDS011;7255;53.596;9.960;2023-11-18T09:02:18;11.83;;;6.23;;
14342;SDS011;7255;53.596;9.960;2023-11-18T09:04:48;7.17;;;4.87;;
14342;SDS011;7255;53.596;9.960;2023-11-18T09:07:14;9.90;;;5.13;;
14342;SDS011;7255;53.596;9.960;2023-11-18T09:09:40;9.90;;;6.50;;
14342;SDS011;7255;53.596;9.960;2023-11-18T09:12:08;6.77;;;5.30;;
14342;SDS011;7255;53.596;9.960;2023-11-18T09:14:39;7.53;;;5.37;;
14342;SDS011;7255;53.596;9.960;2023-11-18T09:17:07;5.60;;;4.77;;
14342;SDS011;7255;53.596;9.960;2023-11-18T09:19:35;7.73;;;5.40;;
14342;SDS011;7255;53.596;9.960;2023-11-18T09:22:02;8.30;;;5.70;;
14342;SDS011;7255;53.596;9.960;2023-11-18T09:24:30;8.77;;;5.57;;
14342;SDS011;7255;53.596;9.960;2023-11-18T09:26:56;6.73;;;5.13;;
14342;SDS011;7255;53.596;9.960;2023-11-18T09:29:22;6.70;;;4.57;;
14342;SDS011;7255;53.596;9.960;2023-11-18T09:31:49;7.30;;;4.53;;
14342;SDS011;7255;53.596;9.960;2023-11-18T09:34:17;8.23;;;5.93;;
14342;SDS011;7255;53.596;9.960;2023-11-18T09:36:53;6.43;;;4.83;;
14342;SDS011;7255;53.596;9.960;2023-11-18T09:39:20;9.87;;;5.70;;
14342;SDS011;7255;53.596;9.960;2023-11-18T09:42:02;8.93;;;5.77;;
14342;SDS011;7255;53.596;9.960;2023-11-18T09:44:33;9.27;;;5.70;;
14342;SDS011;7255;53.596;9.960;2023-11-18T09:47:03;7.87;;;5.13;;
14342;SDS011;7255;53.596;9.960;2023-11-18T09:49:37;9.70;;;5.63;;
14342;SDS011;7255;53.596;9.960;2023-11-18T09:52:14;8.97;;;5.43;;
14342;SDS011;7255;53.596;9.960;2023-11-18T09:54:44;6.70;;;5.03;;
14342;SDS011;7255;53.596;9.960;2023-11-18T09:57:19;7.50;;;4.50;;
14342;SDS011;7255;53.596;9.960;2023-11-18T09:59:55;7.53;;;5.40;;
14342;SDS011;7255;53.596;9.960;2023-11-18T10:02:36;9.43;;;5.73;;
14342;SDS011;7255;53.596;9.960;2023-11-18T10:05:05;7.97;;;5.07;;
14342;SDS011;7255;53.596;9.960;2023-11-18T10:07:38;7.10;;;4.60;;
14342;SDS011;7255;53.596;9.960;2023-11-18T10:10:07;6.07;;;4.57;;
14342;SDS011;7255;53.596;9.960;2023-11-18T10:12:39;6.13;;;4.90;;
14342;SDS011;7255;53.596;9.960;2023-11-18T10:15:07;6.37;;;5.00;;
14342;SDS011;7255;53.596;9.960;2023-11-18T10:17:36;6.03;;;4.20;;
14342;SDS011;7255;53.596;9.960;2023-11-18T10:20:20;6.53;;;4.63;;
14342;SDS011;7255;53.596;9.960;2023-11-18T10:22:52;5.93;;;4.53;;
14342;SDS011;7255;53.596;9.960;2023-11-18T10:25:35;5.13;;;4.63;;
14342;SDS011;7255;53.596;9.960;2023-11-18T10:28:05;6.93;;;3.87;;
14342;SDS011;7255;53.596;9.960;2023-11-18T10:30:32;6.60;;;4.03;;
14342;SDS011;7255;53.596;9.960;2023-11-18T10:32:58;6.77;;;4.77;;
14342;SDS011;7255;53.596;9.960;2023-11-18T10:35:30;4.90;;;3.80;;
14342;SDS011;7255;53.596;9.960;2023-11-18T10:37:59;6.37;;;4.00;;
14342;SDS011;7255;53.596;9.960;2023-11-18T10:40:29;5.57;;;4.67;;
14342;SDS011;7255;53.596;9.960;2023-11-18T10:43:00;6.83;;;5.10;;
14342;SDS011;7255;53.596;9.960;2023-11-18T10:45:26;7.87;;;4.50;;
14342;SDS011;7255;53.596;9.960;2023-11-18T10:47:52;8.37;;;5.07;;
14342;SDS011;7255;53.596;9.960;2023-11-18T10:50:21;4.60;;;3.93;;
14342;SDS011;7255;53.596;9.960;2023-11-18T10:52:47;4.43;;;4.03;;
14342;SDS011;7255;53.596;9.960;2023-11-18T10:55:15;6.60;;;3.23;;
14342;SDS011;7255;53.596;9.960;2023-11-18T10:57:44;6.27;;;3.33;;
14342;SDS011;7255;53.596;9.960;2023-11-18T11:00:12;6.63;;;3.50;;
14342;SDS011;7255;53.596;9.960;2023-11-18T11:02:39;4.13;;;3.40;;
14342;SDS011;7255;53.596;9.960;2023-11-18T11:05:06;3.47;;;3.00;;
14342;SDS011;7255;53.596;9.960;2023-11-18T11:07:32;6.30;;;3.47;;
14342;SDS011;7255;53.596;9.960;2023-11-18T11:09:59;3.03;;;2.73;;
14342;SDS011;7255;53.596;9.960;2023-11-18T11:12:31;3.00;;;2.70;;
14342;SDS011;7255;53.596;9.960;2023-11-18T11:15:06;4.17;;;3.47;;
14342;SDS011;7255;53.596;9.960;2023-11-18T11:17:46;3.80;;;3.47;;
14342;SDS011;7255;53.596;9.960;2023-11-18T11:20:19;4.40;;;3.58;;
14342;SDS011;7255;53.596;9.960;2023-11-18T11:22:55;5.80;;;3.50;;
14342;SDS011;7255;53.596;9.960;2023-11-18T11:25:34;5.17;;;3.30;;
14342;SDS011;7255;53.596;9.960;2023-11-18T11:28:10;4.20;;;3.70;;
14342;SDS011;7255;53.596;9.960;2023-11-18T11:30:42;4.07;;;3.40;;
14342;SDS011;7255;53.596;9.960;2023-11-18T11:33:17;3.87;;;2.90;;
14342;SDS011;7255;53.596;9.960;2023-11-18T11:36:05;5.20;;;3.12;;
14342;SDS011;7255;53.596;9.960;2023-11-18T11:38:36;4.20;;;3.78;;
14342;SDS011;7255;53.596;9.960;2023-11-18T11:41:03;3.12;;;2.70;;
14342;SDS011;7255;53.596;9.960;2023-11-18T11:43:34;3.50;;;3.20;;
14342;SDS011;7255;53.596;9.960;2023-11-18T11:46:01;3.65;;;3.03;;
14342;SDS011;7255;53.596;9.960;2023-11-18T11:48:35;4.27;;;3.60;;
14342;SDS011;7255;53.596;9.960;2023-11-18T11:51:03;4.03;;;3.63;;
14342;SDS011;7255;53.596;9.960;2023-11-18T11:53:39;5.27;;;3.23;;
14342;SDS011;7255;53.596;9.960;2023-11-18T11:56:10;4.60;;;3.63;;
14342;SDS011;7255;53.596;9.960;2023-11-18T11:58:40;5.45;;;3.60;;
14342;SDS011;7255;53.596;9.960;2023-11-18T12:01:15;5.07;;;3.40;;
14342;SDS011;7255;53.596;9.960;2023-11-18T12:03:48;4.63;;;3.40;;
14342;SDS011;7255;53.596;9.960;2023-11-18T12:06:19;4.30;;;3.77;;
14342;SDS011;7255;53.596;9.960;2023-11-18T12:08:48;5.45;;;3.45;;
14342;SDS011;7255;53.596;9.960;2023-11-18T12:11:17;5.10;;;3.67;;
14342;SDS011;7255;53.596;9.960;2023-11-18T12:16:58;5.77;;;4.30;;
14342;SDS011;7255;53.596;9.960;2023-11-18T12:19:29;5.00;;;3.72;;
14342;SDS011;7255;53.596;9.960;2023-11-18T12:21:57;5.03;;;4.00;;
14342;SDS011;7255;53.596;9.960;2023-11-18T12:24:25;3.75;;;3.30;;
14342;SDS011;7255;53.596;9.960;2023-11-18T12:26:54;4.40;;;3.70;;
14342;SDS011;7255;53.596;9.960;2023-11-18T12:29:31;4.80;;;4.17;;
14342;SDS011;7255;53.596;9.960;2023-11-18T12:31:59;5.23;;;4.03;;
14342;SDS011;7255;53.596;9.960;2023-11-18T12:37:21;5.72;;;3.85;;
14342;SDS011;7255;53.596;9.960;2023-11-18T12:43:16;4.53;;;3.83;;
14342;SDS011;7255;53.596;9.960;2023-11-18T12:45:52;3.62;;;3.17;;
14342;SDS011;7255;53.596;9.960;2023-11-18T12:48:43;3.55;;;3.03;;
14342;SDS011;7255;53.596;9.960;2023-11-18T12:51:11;4.47;;;3.53;;
14342;SDS011;7255;53.596;9.960;2023-11-18T12:53:44;4.40;;;3.80;;
14342;SDS011;7255;53.596;9.960;2023-11-18T12:56:14;3.72;;;2.83;;
14342;SDS011;7255;53.596;9.960;2023-11-18T12:58:40;4.25;;;2.92;;
14342;SDS011;7255;53.596;9.960;2023-11-18T13:01:10;4.18;;;2.75;;
14342;SDS011;7255;53.596;9.960;2023-11-18T13:03:39;3.70;;;2.90;;
14342;SDS011;7255;53.596;9.960;2023-11-18T13:06:07;3.47;;;2.63;;
14342;SDS011;7255;53.596;9.960;2023-11-18T13:08:33;3.53;;;2.97;;
14342;SDS011;7255;53.596;9.960;2023-11-18T13:11:00;3.07;;;2.77;;
14342;SDS011;7255;53.596;9.960;2023-11-18T13:13:29;3.80;;;3.40;;
14342;SDS011;7255;53.596;9.960;2023-11-18T13:15:56;4.73;;;4.03;;
14342;SDS011;7255;53.596;9.960;2023-11-18T13:18:25;3.73;;;3.27;;
14342;SDS011;7255;53.596;9.960;2023-11-18T13:20:55;4.07;;;2.83;;
14342;SDS011;7255;53.596;9.960;2023-11-18T13:23:24;3.00;;;2.70;;
14342;SDS011;7255;53.596;9.960;2023-11-18T13:25:53;3.50;;;3.20;;
14342;SDS011;7255;53.596;9.960;2023-11-18T13:28:21;3.43;;;3.13;;
14342;SDS011;7255;53.596;9.960;2023-11-18T13:30:48;2.90;;;2.62;;
14342;SDS011;7255;53.596;9.960;2023-11-18T13:33:14;2.60;;;2.43;;
14342;SDS011;7255;53.596;9.960;2023-11-18T13:35:42;3.87;;;3.10;;
14342;SDS011;7255;53.596;9.960;2023-11-18T13:38:09;3.33;;;3.03;;
14342;SDS011;7255;53.596;9.960;2023-11-18T13:40:42;3.67;;;3.30;;
14342;SDS011;7255;53.596;9.960;2023-11-18T13:43:09;3.47;;;3.17;;
14342;SDS011;7255;53.596;9.960;2023-11-18T13:45:36;4.33;;;3.93;;
14342;SDS011;7255;53.596;9.960;2023-11-18T13:48:04;4.20;;;3.33;;
14342;SDS011;7255;53.596;9.960;2023-11-18T13:50:33;3.10;;;2.80;;
14342;SDS011;7255;53.596;9.960;2023-11-18T13:53:01;3.57;;;3.13;;
14342;SDS011;7255;53.596;9.960;2023-11-18T13:55:27;3.73;;;3.03;;
14342;SDS011;7255;53.596;9.960;2023-11-18T13:57:57;3.70;;;3.10;;
14342;SDS011;7255;53.596;9.960;2023-11-18T14:00:24;4.10;;;3.33;;
14342;SDS011;7255;53.596;9.960;2023-11-18T14:02:53;5.20;;;3.90;;
14342;SDS011;7255;53.596;9.960;2023-11-18T14:05:21;3.93;;;3.37;;
14342;SDS011;7255;53.596;9.960;2023-11-18T14:07:49;8.13;;;3.60;;
14342;SDS011;7255;53.596;9.960;2023-11-18T14:10:17;5.03;;;3.67;;
14342;SDS011;7255;53.596;9.960;2023-11-18T14:12:58;5.43;;;4.13;;
14342;SDS011;7255;53.596;9.960;2023-11-18T14:15:26;4.23;;;3.57;;
14342;SDS011;7255;53.596;9.960;2023-11-18T14:17:52;5.53;;;4.13;;
14342;SDS011;7255;53.596;9.960;2023-11-18T14:20:18;4.67;;;3.97;;
14342;SDS011;7255;53.596;9.960;2023-11-18T14:22:47;3.40;;;3.10;;
14342;SDS011;7255;53.596;9.960;2023-11-18T14:25:13;6.37;;;3.80;;
14342;SDS011;7255;53.596;9.960;2023-11-18T14:27:41;4.33;;;3.57;;
14342;SDS011;7255;53.596;9.960;2023-11-18T14:30:08;7.03;;;4.27;;
14342;SDS011;7255;53.596;9.960;2023-11-18T14:32:35;5.40;;;3.43;;
14342;SDS011;7255;53.596;9.960;2023-11-18T14:35:03;4.03;;;3.63;;
14342;SDS011;7255;53.596;9.960;2023-11-18T14:37:34;5.10;;;4.00;;
14342;SDS011;7255;53.596;9.960;2023-11-18T14:40:01;3.53;;;3.20;;
14342;SDS011;7255;53.596;9.960;2023-11-18T14:42:27;5.83;;;3.73;;
14342;SDS011;7255;53.596;9.960;2023-11-18T14:44:55;3.30;;;3.00;;
14342;SDS011;7255;53.596;9.960;2023-11-18T14:47:21;4.23;;;3.50;;
14342;SDS011;7255;53.596;9.960;2023-11-18T14:49:48;6.13;;;4.13;;
14342;SDS011;7255;53.596;9.960;2023-11-18T14:52:14;5.53;;;4.17;;
14342;SDS011;7255;53.596;9.960;2023-11-18T14:54:41;6.17;;;3.70;;
14342;SDS011;7255;53.596;9.960;2023-11-18T14:57:07;4.30;;;3.83;;
14342;SDS011;7255;53.596;9.960;2023-11-18T14:59:34;4.17;;;3.77;;
14342;SDS011;7255;53.596;9.960;2023-11-18T15:02:03;6.20;;;4.23;;
14342;SDS011;7255;53.596;9.960;2023-11-18T15:04:29;6.20;;;4.47;;
14342;SDS011;7255;53.596;9.960;2023-11-18T15:06:56;4.27;;;3.83;;
14342;SDS011;7255;53.596;9.960;2023-11-18T15:09:23;5.03;;;3.83;;
14342;SDS011;7255;53.596;9.960;2023-11-18T15:11:49;5.93;;;4.20;;
14342;SDS011;7255;53.596;9.960;2023-11-18T15:14:18;5.77;;;4.13;;
14342;SDS011;7255;53.596;9.960;2023-11-18T15:16:44;4.67;;;3.63;;
14342;SDS011;7255;53.596;9.960;2023-11-18T15:19:13;4.27;;;3.27;;